createdAt,value
2018-12-26T00:02:33.020Z,-1.10
2018-12-26T00:06:38.129Z,-1.10
2018-12-26T00:10:43.202Z,-1.16
2018-12-26T00:14:48.258Z,-1.10
2018-12-26T00:18:53.357Z,-1.02
2018-12-26T00:22:58.657Z,-1.10
2018-12-26T00:27:03.801Z,-1.12
2018-12-26T00:31:08.958Z,-1.12
2018-12-26T00:35:14.232Z,-1.09
2018-12-26T00:39:19.595Z,-1.17
2018-12-26T00:43:24.729Z,-1.04
2018-12-26T00:47:29.906Z,-1.09
2018-12-26T00:51:35.018Z,-1.18
2018-12-26T00:55:40.365Z,-1.13
2018-12-26T00:59:45.325Z,-1.11
2018-12-26T01:03:50.580Z,-1.18
2018-12-26T01:07:55.735Z,-1.29
2018-12-26T01:12:00.869Z,-1.28
2018-12-26T01:16:06.029Z,-1.20
2018-12-26T01:20:11.222Z,-1.19
2018-12-26T01:24:16.291Z,-1.24
2018-12-26T01:28:21.288Z,-1.24
2018-12-26T01:32:26.602Z,-1.30
2018-12-26T01:36:31.808Z,-1.31
2018-12-26T01:40:36.874Z,-1.44
2018-12-26T01:44:41.919Z,-1.26
2018-12-26T01:48:47.094Z,-1.36
2018-12-26T01:52:52.220Z,-1.39
2018-12-26T01:56:57.699Z,-1.32
2018-12-26T02:01:03.293Z,-1.35
2018-12-26T02:05:08.417Z,-1.39
2018-12-26T02:09:13.966Z,-1.42
2018-12-26T02:13:19.049Z,-1.29
2018-12-26T02:17:24.057Z,-1.41
2018-12-26T02:21:29.125Z,-1.42
2018-12-26T02:25:34.278Z,-1.42
2018-12-26T02:29:39.350Z,-1.33
2018-12-26T02:33:44.685Z,-1.44
2018-12-26T02:37:49.790Z,-1.40
2018-12-26T02:41:54.855Z,-1.22
2018-12-26T02:45:59.918Z,-1.32
2018-12-26T02:50:06.202Z,-1.31
2018-12-26T02:54:11.257Z,-1.27
2018-12-26T02:58:16.387Z,-1.29
2018-12-26T03:02:21.500Z,-1.35
2018-12-26T03:06:26.563Z,-1.50
2018-12-26T03:10:31.572Z,-1.54
2018-12-26T03:14:37.083Z,-1.35
2018-12-26T03:18:42.172Z,-1.53
2018-12-26T03:22:47.258Z,-1.47
2018-12-26T03:26:56.323Z,-1.48
2018-12-26T03:30:59.047Z,-1.41
2018-12-26T03:35:04.466Z,-1.43
2018-12-26T03:39:09.625Z,-1.49
2018-12-26T03:48:23.596Z,-1.44
2018-12-26T03:52:28.691Z,-1.55
2018-12-26T03:56:33.746Z,-1.56
2018-12-26T04:00:38.849Z,-1.64
2018-12-26T04:04:43.911Z,-1.65
2018-12-26T04:08:49.064Z,-1.57
2018-12-26T04:12:54.322Z,-1.64
2018-12-26T04:16:59.421Z,-1.55
2018-12-26T04:21:04.520Z,-1.58
2018-12-26T04:25:09.668Z,-1.49
2018-12-26T04:29:14.686Z,-1.55
2018-12-26T04:33:19.793Z,-1.54
2018-12-26T04:37:24.845Z,-1.59
2018-12-26T04:41:29.945Z,-1.45
2018-12-26T04:45:34.999Z,-1.57
2018-12-26T04:49:40.176Z,-1.46
2018-12-26T04:53:45.210Z,-1.56
2018-12-26T04:57:50.276Z,-1.59
2018-12-26T05:01:55.284Z,-1.55
2018-12-26T05:06:00.407Z,-1.53
2018-12-26T05:10:05.656Z,-1.69
2018-12-26T05:14:10.719Z,-1.52
2018-12-26T05:18:15.851Z,-1.61
2018-12-26T05:22:21.076Z,-1.56
2018-12-26T05:26:26.251Z,-1.60
2018-12-26T05:30:31.320Z,-1.66
2018-12-26T05:34:36.472Z,-1.58
2018-12-26T05:38:41.552Z,-1.55
2018-12-26T05:42:46.643Z,-1.50
2018-12-26T05:46:51.650Z,-1.53
2018-12-26T05:50:56.699Z,-1.55
2018-12-26T05:55:01.689Z,-1.63
2018-12-26T05:59:06.747Z,-1.49
2018-12-26T06:03:11.829Z,-1.41
2018-12-26T06:07:16.850Z,-1.33
2018-12-26T06:11:22.188Z,-1.38
2018-12-26T06:15:27.317Z,-1.53
2018-12-26T06:19:32.412Z,-1.55
2018-12-26T06:23:37.450Z,-1.47
2018-12-26T06:27:51.259Z,-1.41
2018-12-26T06:31:55.050Z,-1.34
2018-12-26T06:36:00.145Z,-1.34
2018-12-26T06:40:05.414Z,-1.48
2018-12-26T06:44:10.437Z,-1.60
2018-12-26T06:48:15.497Z,-1.35
2018-12-26T06:52:20.528Z,-1.26
2018-12-26T06:56:25.605Z,-1.30
2018-12-26T07:00:30.709Z,-1.56
2018-12-26T07:04:35.785Z,-1.55
2018-12-26T07:08:40.821Z,-1.30
2018-12-26T07:12:45.806Z,-1.34
2018-12-26T07:16:50.852Z,-1.54
2018-12-26T07:20:55.814Z,-1.56
2018-12-26T07:25:00.850Z,-1.72
2018-12-26T07:29:05.901Z,-1.61
2018-12-26T07:33:10.991Z,-1.67
2018-12-26T07:37:17.461Z,-1.62
2018-12-26T07:41:22.576Z,-1.49
2018-12-26T07:45:28.480Z,-1.48
2018-12-26T07:49:33.603Z,-1.40
2018-12-26T07:53:38.745Z,-1.36
2018-12-26T07:57:43.837Z,-1.20
2018-12-26T08:01:49.039Z,-1.02
2018-12-26T08:05:54.051Z,-0.79
2018-12-26T08:09:59.083Z,-0.55
2018-12-26T08:14:04.140Z,-0.26
2018-12-26T08:18:28.316Z,-0.04
2018-12-26T08:22:33.304Z,0.21
2018-12-26T08:26:57.579Z,0.45
2018-12-26T08:31:02.983Z,0.60
2018-12-26T08:35:07.968Z,0.35
2018-12-26T08:39:12.946Z,0.47
2018-12-26T08:43:17.996Z,0.36
2018-12-26T08:47:23.060Z,0.34
2018-12-26T08:51:28.124Z,0.38
2018-12-26T08:55:33.280Z,0.28
2018-12-26T08:59:38.329Z,0.58
2018-12-26T09:03:43.499Z,0.89
2018-12-26T09:07:48.684Z,1.38
2018-12-26T09:11:53.796Z,1.68
2018-12-26T09:15:59.001Z,2.06
2018-12-26T09:20:04.365Z,2.38
2018-12-26T09:24:09.421Z,2.36
2018-12-26T09:28:14.447Z,3.08
2018-12-26T09:32:19.512Z,2.79
2018-12-26T09:36:24.644Z,3.13
2018-12-26T09:40:29.714Z,3.13
2018-12-26T09:44:34.709Z,3.22
2018-12-26T09:48:39.581Z,3.12
2018-12-26T09:52:44.681Z,2.72
2018-12-26T09:56:49.675Z,2.49
2018-12-26T10:00:54.730Z,2.63
2018-12-26T10:04:59.751Z,2.97
2018-12-26T10:09:06.355Z,3.43
2018-12-26T10:13:11.448Z,3.01
2018-12-26T10:17:16.506Z,3.58
2018-12-26T10:21:21.573Z,3.23
2018-12-26T10:25:26.642Z,3.69
2018-12-26T10:29:31.954Z,4.49
2018-12-26T10:33:36.998Z,4.58
2018-12-26T10:37:42.019Z,3.86
2018-12-26T10:41:47.122Z,4.76
2018-12-26T10:45:52.201Z,4.48
2018-12-26T10:49:57.275Z,5.02
2018-12-26T10:54:02.353Z,4.68
2018-12-26T10:58:07.440Z,5.13
2018-12-26T11:02:12.983Z,5.31
2018-12-26T11:06:17.949Z,5.54
2018-12-26T11:10:23.040Z,5.80
2018-12-26T11:14:28.119Z,5.79
2018-12-26T11:18:33.309Z,5.81
2018-12-26T11:22:38.425Z,6.13
2018-12-26T11:26:43.575Z,5.97
2018-12-26T11:30:50.314Z,6.10
2018-12-26T11:34:55.351Z,6.55
2018-12-26T11:39:00.575Z,5.35
2018-12-26T11:43:05.917Z,6.06
2018-12-26T11:47:10.937Z,5.32
2018-12-26T11:51:16.004Z,5.60
2018-12-26T11:55:21.170Z,5.53
2018-12-26T11:59:27.405Z,5.25
2018-12-26T12:03:39.522Z,5.63
2018-12-26T12:07:44.457Z,5.46
2018-12-26T12:11:49.793Z,5.83
2018-12-26T12:15:54.863Z,5.94
2018-12-26T12:19:59.972Z,5.79
2018-12-26T12:24:05.102Z,6.40
2018-12-26T12:28:10.395Z,6.56
2018-12-26T12:32:15.538Z,6.79
2018-12-26T12:36:31.393Z,6.62
2018-12-26T12:40:55.571Z,6.74
2018-12-26T12:45:00.675Z,6.32
2018-12-26T12:49:05.788Z,6.55
2018-12-26T12:53:10.926Z,7.23
2018-12-26T12:57:16.064Z,6.69
2018-12-26T13:01:21.149Z,6.73
2018-12-26T13:05:26.311Z,6.74
2018-12-26T13:09:31.377Z,6.38
2018-12-26T13:13:36.339Z,6.52
2018-12-26T13:17:41.412Z,6.39
2018-12-26T13:21:47.521Z,6.55
2018-12-26T13:25:52.578Z,6.71
2018-12-26T13:29:57.678Z,6.35
2018-12-26T13:34:02.806Z,6.26
2018-12-26T13:38:08.139Z,5.94
2018-12-26T13:42:13.209Z,5.75
2018-12-26T13:46:18.422Z,6.06
2018-12-26T13:50:23.692Z,6.39
2018-12-26T13:54:30.380Z,6.43
2018-12-26T13:58:35.576Z,6.02
2018-12-26T14:02:40.716Z,5.82
2018-12-26T14:06:45.828Z,5.66
2018-12-26T14:10:51.091Z,6.47
2018-12-26T14:14:56.168Z,5.58
2018-12-26T14:19:01.298Z,5.45
2018-12-26T14:23:06.581Z,5.82
2018-12-26T14:27:11.644Z,6.02
2018-12-26T14:31:16.801Z,5.55
2018-12-26T14:35:21.927Z,5.59
2018-12-26T14:39:27.048Z,5.28
2018-12-26T14:43:32.075Z,5.28
2018-12-26T14:47:37.169Z,5.44
2018-12-26T14:51:42.374Z,5.71
2018-12-26T14:55:47.553Z,5.74
2018-12-26T14:59:52.589Z,6.59
2018-12-26T15:03:57.765Z,6.54
2018-12-26T15:08:02.910Z,7.42
2018-12-26T15:12:27.111Z,7.31
2018-12-26T15:16:32.365Z,7.31
2018-12-26T15:20:37.451Z,6.35
2018-12-26T15:24:42.597Z,5.17
2018-12-26T15:28:47.697Z,4.33
2018-12-26T15:32:52.826Z,4.15
2018-12-26T15:36:57.814Z,3.10
2018-12-26T15:41:02.905Z,2.94
2018-12-26T15:45:07.953Z,2.94
2018-12-26T15:49:13.124Z,2.75
2018-12-26T15:53:18.213Z,2.51
2018-12-26T15:57:23.305Z,2.41
2018-12-26T16:01:28.351Z,2.43
2018-12-26T16:05:33.498Z,2.56
2018-12-26T16:09:38.748Z,2.47
2018-12-26T16:13:43.831Z,2.28
2018-12-26T16:17:49.053Z,2.15
2018-12-26T16:21:54.246Z,2.16
2018-12-26T16:25:59.239Z,2.24
2018-12-26T16:30:04.601Z,2.03
2018-12-26T16:34:09.768Z,1.96
2018-12-26T16:38:26.649Z,1.81
2018-12-26T16:42:31.886Z,1.81
2018-12-26T16:46:36.956Z,1.99
2018-12-26T16:50:41.980Z,1.72
2018-12-26T16:54:46.974Z,1.68
2018-12-26T16:58:51.959Z,1.63
2018-12-26T17:02:57.055Z,1.72
2018-12-26T17:07:02.431Z,1.45
2018-12-26T17:11:07.485Z,1.33
2018-12-26T17:15:12.842Z,1.42
2018-12-26T17:19:18.004Z,1.29
2018-12-26T17:23:23.060Z,1.13
2018-12-26T17:27:28.091Z,1.17
2018-12-26T17:31:33.141Z,0.98
2018-12-26T17:35:38.296Z,1.25
2018-12-26T17:39:43.378Z,0.75
2018-12-26T17:43:48.407Z,0.83
2018-12-26T17:47:53.507Z,0.72
2018-12-26T17:51:58.551Z,0.67
2018-12-26T17:56:17.066Z,0.52
2018-12-26T18:01:00.279Z,0.58
2018-12-26T18:05:05.484Z,0.82
2018-12-26T18:09:10.573Z,0.77
2018-12-26T18:13:15.647Z,0.69
2018-12-26T18:17:21.737Z,0.89
2018-12-26T18:21:26.865Z,0.92
2018-12-26T18:25:31.999Z,0.73
2018-12-26T18:29:37.110Z,0.51
2018-12-26T18:33:42.214Z,0.50
2018-12-26T18:37:47.186Z,0.69
2018-12-26T18:41:52.270Z,0.67
2018-12-26T18:45:57.439Z,0.43
2018-12-26T18:50:02.563Z,0.43
2018-12-26T18:54:07.582Z,0.34
2018-12-26T18:58:12.960Z,0.20
2018-12-26T19:02:18.007Z,0.19
2018-12-26T19:06:23.231Z,0.26
2018-12-26T19:10:28.132Z,0.14
2018-12-26T19:14:33.491Z,-0.12
2018-12-26T19:18:38.783Z,-0.04
2018-12-26T19:22:43.820Z,-0.07
2018-12-26T19:26:48.745Z,-0.16
2018-12-26T19:30:55.479Z,-0.05
2018-12-26T19:35:00.629Z,-0.11
2018-12-26T19:39:07.327Z,0.09
2018-12-26T19:43:12.280Z,0.24
2018-12-26T19:47:17.369Z,0.03
2018-12-26T19:51:22.503Z,-0.04
2018-12-26T19:55:27.710Z,-0.11
2018-12-26T19:59:32.779Z,0.07
2018-12-26T20:03:37.841Z,0.42
2018-12-26T20:12:12.880Z,0.80
2018-12-26T20:16:17.979Z,0.46
2018-12-26T20:20:23.009Z,0.33
2018-12-26T20:24:28.073Z,0.66
2018-12-26T20:28:33.087Z,0.75
2018-12-26T20:32:38.161Z,0.23
2018-12-26T20:36:43.240Z,0.16
2018-12-26T20:40:48.340Z,0.12
2018-12-26T20:44:53.435Z,0.21
2018-12-26T20:48:58.943Z,0.16
2018-12-26T20:53:04.018Z,0.63
2018-12-26T20:57:09.476Z,0.75
2018-12-26T21:01:14.592Z,0.33
2018-12-26T21:05:19.633Z,0.25
2018-12-26T21:09:24.681Z,0.39
2018-12-26T21:13:29.731Z,0.76
2018-12-26T21:17:34.740Z,0.78
2018-12-26T21:21:39.891Z,0.92
2018-12-26T21:25:46.713Z,0.71
2018-12-26T21:29:51.807Z,0.49
2018-12-26T21:33:56.886Z,0.26
2018-12-26T21:38:01.935Z,0.49
2018-12-26T21:42:07.032Z,0.58
2018-12-26T21:46:12.100Z,0.60
2018-12-26T21:50:17.174Z,0.68
2018-12-26T21:54:22.319Z,0.50
2018-12-26T21:58:27.416Z,0.47
2018-12-26T22:02:32.532Z,0.52
2018-12-26T22:06:37.661Z,0.69
2018-12-26T22:10:42.760Z,0.86
2018-12-26T22:14:47.793Z,0.64
2018-12-26T22:18:52.879Z,0.60
2018-12-26T22:22:58.023Z,0.71
2018-12-26T22:27:03.075Z,0.67
2018-12-26T22:31:08.131Z,0.99
2018-12-26T22:35:13.208Z,0.55
2018-12-26T22:39:18.270Z,0.42
2018-12-26T22:43:23.431Z,0.21
2018-12-26T22:47:28.559Z,0.51
2018-12-26T22:51:42.072Z,0.38
2018-12-26T22:55:53.257Z,0.60
2018-12-26T22:59:58.606Z,0.89
2018-12-26T23:04:03.773Z,0.43
2018-12-26T23:08:08.807Z,0.46
2018-12-26T23:12:13.968Z,0.35
2018-12-26T23:16:19.046Z,0.30
2018-12-26T23:20:24.144Z,0.46
2018-12-26T23:24:29.208Z,0.27
2018-12-26T23:28:34.207Z,0.37
2018-12-26T23:32:46.734Z,0.60
2018-12-26T23:36:51.399Z,0.42
2018-12-26T23:40:56.419Z,0.41
2018-12-26T23:45:01.485Z,0.42
2018-12-26T23:49:06.537Z,0.55
2018-12-26T23:53:11.596Z,0.64
2018-12-26T23:57:16.727Z,0.55
